Pagina principală
METAR-TAF:

METAR-TAF

Aeroporturi :

Ballina, Australia

Latitudine: 28-50-00S, longitudine: 153-33-42E, elevație: 2 m

Observații meteo curente

Raportul a fost făcut în urmă cu 37 de minute, la 10:00 UTC
Vânt 6 kt de la Sud/Sud-vest
Temperatură 20°C
Umiditate 64%
Presiune 1018 hPa
Vizibilitate de 10 km sau mai mult
Nori împrăștiați la o înălțime de 4500 picior
Nori fragmentați la o înălțime de 5500 picior
Total acoperit la o înălțime de 6900 picior

METAR: YBNA 261000Z AUTO 21006KT 9999 // SCT045 BKN055 OVC069 20/13 Q1018

Ora: 20:37 (10:37 UTC)


TAF: lipsă

Observații și prognoze meteo pentru peste 4.000 de aeroporturi (rapoarte METAR și TAF).

Stațiile disponibile sunt reprezentate pe hartă prin puncte galbene și roșii.

Țineți indicatorul mouse-ului pe punctul dorit pentru a vedea denumirea stației.

Apoi, faceți clic pentru a vedea observațiile și prognozele meteorologice.

Pentru a schimba harta: Pentru mărire, faceți clic pe butoanele verzi cu cruce neagră; pentru micșorare, pe butonul verde cu o liniuță; pentru hărți învecinate, pe săgețile verzi.


METAR-TAF: